createdAt,value
2022-12-20T00:02:01.336Z,52.97
2022-12-20T00:04:30.384Z,58.13
2022-12-20T00:06:59.329Z,56.67
2022-12-20T00:09:28.578Z,45.33
2022-12-20T00:11:57.484Z,52.13
2022-12-20T00:14:27.044Z,54.35
2022-12-20T00:16:56.144Z,53.35
2022-12-20T00:19:25.127Z,59.70
2022-12-20T00:21:54.725Z,49.53
2022-12-20T00:24:26.296Z,57.63
2022-12-20T00:26:55.704Z,53.63
2022-12-20T00:29:24.732Z,48.83
2022-12-20T00:31:53.739Z,52.92
2022-12-20T00:34:23.031Z,43.72
2022-12-20T00:36:52.038Z,44.45
2022-12-20T00:39:21.031Z,43.85
2022-12-20T00:41:50.116Z,40.35
2022-12-20T00:44:19.055Z,40.65
2022-12-20T00:46:48.108Z,39.58
2022-12-20T00:49:17.653Z,47.47
2022-12-20T00:51:46.636Z,44.88
2022-12-20T00:54:15.855Z,44.88
2022-12-20T00:56:44.893Z,45.67
2022-12-20T00:59:14.018Z,30.90
2022-12-20T01:01:43.099Z,34.80
2022-12-20T01:04:12.191Z,33.75
2022-12-20T01:06:41.907Z,34.67
2022-12-20T01:09:11.820Z,34.88
2022-12-20T01:11:41.432Z,32.22
2022-12-20T01:14:15.466Z,36.38
2022-12-20T01:16:47.278Z,25.65
2022-12-20T01:19:18.475Z,25.85
2022-12-20T01:21:47.699Z,29.33
2022-12-20T01:24:19.264Z,29.50
2022-12-20T01:26:49.410Z,29.73
2022-12-20T01:29:18.691Z,29.98
2022-12-20T01:31:47.704Z,31.13
2022-12-20T01:34:16.790Z,31.45
2022-12-20T01:36:45.906Z,31.98
2022-12-20T01:39:18.055Z,28.35
2022-12-20T01:41:47.966Z,34.33
2022-12-20T01:44:19.872Z,28.38
2022-12-20T01:46:50.562Z,29.77
2022-12-20T01:49:27.673Z,27.48
2022-12-20T01:52:12.692Z,23.50
2022-12-20T01:55:10.294Z,21.60
2022-12-20T01:57:48.543Z,22.70
2022-12-20T02:00:18.413Z,26.15
2022-12-20T02:02:51.894Z,24.23
2022-12-20T02:05:24.241Z,24.48
2022-12-20T02:07:56.828Z,25.25
2022-12-20T02:10:36.546Z,23.10
2022-12-20T02:13:14.075Z,25.35
2022-12-20T02:15:53.327Z,20.85
2022-12-20T02:18:43.713Z,20.65
2022-12-20T02:21:20.066Z,24.00
2022-12-20T02:24:16.693Z,17.90
2022-12-20T02:27:10.412Z,19.98
2022-12-20T02:29:58.841Z,23.80
2022-12-20T02:32:42.536Z,24.23
2022-12-20T02:35:15.360Z,22.87
2022-12-20T02:37:56.863Z,25.33
2022-12-20T02:40:30.319Z,26.45
2022-12-20T02:43:04.449Z,26.25
2022-12-20T02:48:11.513Z,27.35
2022-12-20T02:50:46.779Z,24.10
2022-12-20T02:53:16.702Z,24.60
2022-12-20T02:55:58.648Z,28.05
2022-12-20T02:58:37.635Z,29.20
2022-12-20T03:01:14.974Z,28.50
2022-12-20T03:03:44.266Z,25.08
2022-12-20T03:06:13.389Z,29.70
2022-12-20T03:08:42.527Z,25.25
2022-12-20T03:11:11.658Z,33.33
2022-12-20T03:13:42.305Z,25.60
2022-12-20T03:16:12.055Z,38.28
2022-12-20T03:18:41.156Z,24.13
2022-12-20T03:21:10.154Z,26.38
2022-12-20T03:23:39.172Z,30.27
2022-12-20T03:26:08.349Z,21.50
2022-12-20T03:28:37.483Z,18.83
2022-12-20T03:31:09.472Z,18.33
2022-12-20T03:33:38.513Z,21.52
2022-12-20T03:36:09.963Z,16.35
2022-12-20T03:38:39.509Z,18.50
2022-12-20T03:41:08.587Z,16.35
2022-12-20T03:43:37.551Z,19.27
2022-12-20T03:46:07.133Z,14.65
2022-12-20T03:48:36.178Z,20.33
2022-12-20T03:51:05.625Z,14.07
2022-12-20T03:53:35.290Z,18.17
2022-12-20T03:56:04.305Z,16.52
2022-12-20T03:58:33.420Z,19.15
2022-12-20T04:01:02.700Z,17.45
2022-12-20T04:03:31.952Z,21.05
2022-12-20T04:06:01.037Z,17.80
2022-12-20T04:08:29.971Z,20.73
2022-12-20T04:11:19.024Z,14.90
2022-12-20T04:13:53.574Z,15.88
2022-12-20T04:16:24.986Z,21.65
2022-12-20T04:18:54.375Z,21.23
2022-12-20T04:21:31.768Z,13.63
2022-12-20T04:24:02.391Z,20.58
2022-12-20T04:26:31.704Z,14.20
2022-12-20T04:29:00.780Z,18.58
2022-12-20T04:31:30.011Z,17.50
2022-12-20T04:33:59.004Z,18.25
2022-12-20T04:36:28.298Z,19.27
2022-12-20T04:38:57.311Z,15.45
2022-12-20T04:41:28.115Z,12.93
2022-12-20T04:43:59.420Z,14.95
2022-12-20T04:46:29.060Z,27.70
2022-12-20T04:48:59.636Z,18.17
2022-12-20T04:51:29.721Z,22.42
2022-12-20T04:53:59.011Z,22.42
2022-12-20T04:56:30.236Z,15.88
2022-12-20T04:59:00.815Z,15.48
2022-12-20T05:01:29.988Z,14.63
2022-12-20T05:03:59.182Z,15.35
2022-12-20T05:06:28.243Z,16.48
2022-12-20T05:08:57.439Z,16.75
2022-12-20T05:11:26.390Z,20.33
2022-12-20T05:13:55.498Z,15.88
2022-12-20T05:16:24.497Z,18.52
2022-12-20T05:18:55.000Z,18.33
2022-12-20T05:21:41.838Z,17.75
2022-12-20T05:24:29.972Z,20.30
2022-12-20T05:26:59.088Z,22.10
2022-12-20T05:29:28.797Z,17.85
2022-12-20T05:31:57.830Z,13.75
2022-12-20T05:34:26.984Z,12.32
2022-12-20T05:36:55.999Z,11.43
2022-12-20T05:39:24.986Z,15.73
2022-12-20T05:41:54.821Z,14.10
2022-12-20T05:44:28.901Z,14.95
2022-12-20T05:46:58.064Z,14.48
2022-12-20T05:49:29.627Z,20.67
2022-12-20T05:51:58.553Z,14.55
2022-12-20T05:54:27.559Z,21.00
2022-12-20T05:56:59.435Z,16.02
2022-12-20T05:59:28.326Z,12.00
2022-12-20T06:01:57.401Z,16.60
2022-12-20T06:04:26.925Z,15.77
2022-12-20T06:06:55.889Z,14.88
2022-12-20T06:09:24.839Z,17.63
2022-12-20T06:11:54.354Z,14.07
2022-12-20T06:14:23.677Z,14.48
2022-12-20T06:16:53.814Z,11.75
2022-12-20T06:19:23.060Z,17.25
2022-12-20T06:21:52.070Z,11.43
2022-12-20T06:24:21.017Z,23.67
2022-12-20T06:26:50.246Z,15.25
2022-12-20T06:29:21.849Z,17.17
2022-12-20T06:31:50.854Z,16.48
2022-12-20T06:34:20.364Z,18.77
2022-12-20T06:36:49.291Z,13.65
2022-12-20T06:39:18.309Z,13.80
2022-12-20T06:41:50.368Z,18.13
2022-12-20T06:44:19.973Z,16.48
2022-12-20T06:46:48.971Z,13.30
2022-12-20T06:49:18.239Z,19.73
2022-12-20T06:51:47.209Z,12.18
2022-12-20T06:54:18.061Z,13.40
2022-12-20T06:56:47.050Z,17.15
2022-12-20T06:59:16.502Z,13.88
2022-12-20T07:01:51.156Z,18.35
2022-12-20T07:04:26.623Z,15.82
2022-12-20T07:06:58.926Z,20.70
2022-12-20T07:09:27.923Z,16.50
2022-12-20T07:11:57.099Z,16.25
2022-12-20T07:14:26.322Z,17.45
2022-12-20T07:16:56.079Z,16.40
2022-12-20T07:19:25.191Z,17.45
2022-12-20T07:21:55.227Z,17.00
2022-12-20T07:24:24.238Z,14.63
2022-12-20T07:26:55.168Z,13.45
2022-12-20T07:29:24.252Z,13.45
2022-12-20T07:31:55.317Z,18.25
2022-12-20T07:34:24.961Z,15.63
2022-12-20T07:36:55.151Z,15.85
2022-12-20T07:39:24.715Z,20.02
2022-12-20T07:41:58.139Z,15.93
2022-12-20T07:44:27.736Z,18.33
2022-12-20T07:46:56.700Z,15.30
2022-12-20T07:49:25.758Z,18.73
2022-12-20T07:52:00.968Z,15.13
2022-12-20T07:54:36.820Z,18.30
2022-12-20T07:57:17.504Z,18.30
2022-12-20T07:59:51.454Z,15.85
2022-12-20T08:04:52.619Z,20.10
2022-12-20T08:07:21.784Z,16.60
2022-12-20T08:09:51.073Z,20.40
2022-12-20T08:12:21.413Z,15.82
2022-12-20T08:14:53.614Z,17.88
2022-12-20T08:17:25.482Z,14.50
2022-12-20T08:19:54.744Z,21.85
2022-12-20T08:22:24.212Z,14.75
2022-12-20T08:24:53.166Z,13.98
2022-12-20T08:27:22.121Z,16.80
2022-12-20T08:29:54.432Z,17.05
2022-12-20T08:32:26.078Z,14.23
2022-12-20T08:34:55.578Z,16.85
2022-12-20T08:37:28.607Z,18.38
2022-12-20T08:40:01.863Z,14.70
2022-12-20T08:42:31.069Z,15.57
2022-12-20T08:45:00.108Z,21.65
2022-12-20T08:47:31.721Z,20.73
2022-12-20T08:50:00.916Z,18.67
2022-12-20T08:52:30.971Z,22.20
2022-12-20T08:55:01.753Z,16.67
2022-12-20T08:57:31.431Z,20.02
2022-12-20T09:00:00.494Z,23.35
2022-12-20T09:02:29.667Z,16.27
2022-12-20T09:04:58.865Z,18.15
2022-12-20T09:07:28.246Z,21.83
2022-12-20T09:09:58.148Z,17.48
2022-12-20T09:12:27.418Z,16.98
2022-12-20T09:14:56.460Z,16.95
2022-12-20T09:17:25.669Z,26.13
2022-12-20T09:19:56.275Z,16.95
2022-12-20T09:22:25.175Z,20.33
2022-12-20T09:24:54.309Z,22.75
2022-12-20T09:27:23.651Z,27.35
2022-12-20T09:29:52.679Z,28.98
2022-12-20T09:32:21.793Z,25.00
2022-12-20T09:34:50.977Z,25.10
2022-12-20T09:37:19.989Z,19.40
2022-12-20T09:39:54.087Z,18.23
2022-12-20T09:42:27.189Z,18.73
2022-12-20T09:45:09.666Z,16.07
2022-12-20T09:47:40.462Z,31.48
2022-12-20T09:50:16.917Z,22.70
2022-12-20T09:53:18.164Z,18.27
2022-12-20T09:56:00.706Z,15.95
2022-12-20T09:58:44.337Z,18.65
2022-12-20T10:01:25.257Z,22.88
2022-12-20T10:03:57.636Z,23.83
2022-12-20T10:06:45.365Z,24.60
2022-12-20T10:09:58.466Z,27.80
2022-12-20T10:12:48.730Z,27.25
2022-12-20T10:15:23.865Z,24.55
2022-12-20T10:18:08.167Z,20.15
2022-12-20T10:23:46.956Z,23.92
2022-12-20T10:26:16.356Z,18.17
2022-12-20T10:28:50.743Z,25.60
2022-12-20T10:31:23.465Z,20.13
2022-12-20T10:33:52.845Z,21.63
2022-12-20T10:36:35.109Z,21.15
2022-12-20T10:39:09.370Z,21.90
2022-12-20T10:41:41.394Z,22.52
2022-12-20T10:44:27.855Z,30.88
2022-12-20T10:46:59.625Z,23.98
2022-12-20T10:49:42.105Z,27.23
2022-12-20T10:52:11.456Z,22.25
2022-12-20T10:54:40.323Z,26.00
2022-12-20T10:57:25.723Z,35.45
2022-12-20T11:00:07.418Z,30.33
2022-12-20T11:02:42.139Z,25.30
2022-12-20T11:05:11.986Z,30.23
2022-12-20T11:08:33.460Z,28.13
2022-12-20T11:10:45.088Z,31.17
2022-12-20T11:13:30.245Z,35.90
2022-12-20T11:16:02.507Z,28.98
2022-12-20T11:18:49.352Z,30.67
2022-12-20T11:21:28.496Z,42.83
2022-12-20T11:24:24.226Z,43.85
2022-12-20T11:27:22.242Z,34.83
2022-12-20T11:30:09.390Z,34.33
2022-12-20T11:32:56.701Z,34.42
2022-12-20T11:35:38.780Z,37.45
2022-12-20T11:38:32.432Z,31.77
2022-12-20T11:41:16.846Z,46.63
2022-12-20T11:47:10.517Z,47.90
2022-12-20T11:49:58.665Z,40.70
2022-12-20T11:52:38.492Z,34.90
2022-12-20T11:55:30.893Z,41.75
2022-12-20T11:58:19.252Z,34.95
2022-12-20T12:00:53.400Z,34.10
2022-12-20T12:03:34.809Z,36.38
2022-12-20T12:06:30.360Z,41.28
2022-12-20T12:09:19.813Z,43.90
2022-12-20T12:12:27.238Z,38.55
2022-12-20T12:15:09.894Z,43.30
2022-12-20T12:18:03.619Z,46.90
2022-12-20T12:20:51.211Z,42.92
2022-12-20T12:23:29.534Z,43.28
2022-12-20T12:26:03.050Z,48.03
2022-12-20T12:28:32.085Z,49.22
2022-12-20T12:31:08.136Z,40.63
2022-12-20T12:33:47.435Z,45.80
2022-12-20T12:37:05.619Z,53.00
2022-12-20T12:39:52.742Z,41.45
2022-12-20T12:42:58.280Z,41.13
2022-12-20T12:46:03.012Z,45.08
2022-12-20T12:48:59.274Z,43.10
2022-12-20T12:51:35.938Z,45.75
2022-12-20T12:54:10.624Z,42.40
2022-12-20T12:56:47.152Z,51.85
2022-12-20T12:59:46.562Z,40.65
2022-12-20T13:02:16.073Z,39.00
2022-12-20T13:05:11.363Z,45.58
2022-12-20T13:07:44.685Z,54.15
2022-12-20T13:10:16.856Z,50.03
2022-12-20T13:12:54.666Z,42.80
2022-12-20T13:15:23.712Z,45.88
2022-12-20T13:17:56.832Z,39.17
2022-12-20T13:20:28.235Z,57.05
2022-12-20T13:23:15.297Z,46.40
2022-12-20T13:25:50.031Z,40.85
2022-12-20T13:28:25.174Z,43.55
2022-12-20T13:31:03.269Z,55.42
2022-12-20T13:33:48.666Z,41.50
2022-12-20T13:36:38.361Z,48.25
2022-12-20T13:39:34.373Z,49.53
2022-12-20T13:42:32.157Z,40.53
2022-12-20T13:45:05.566Z,43.72
2022-12-20T13:47:41.924Z,42.93
2022-12-20T13:50:25.785Z,51.92
2022-12-20T13:52:55.859Z,56.05
2022-12-20T13:55:38.213Z,51.53
2022-12-20T13:58:13.227Z,53.25
2022-12-20T14:00:43.043Z,60.70
2022-12-20T14:03:32.897Z,48.65
2022-12-20T14:06:05.408Z,50.60
2022-12-20T14:08:37.605Z,55.97
2022-12-20T14:11:11.090Z,54.13
2022-12-20T14:13:40.640Z,54.97
2022-12-20T14:16:18.080Z,48.38
2022-12-20T14:19:06.600Z,44.78
2022-12-20T14:21:43.003Z,51.05
2022-12-20T14:24:22.342Z,59.75
2022-12-20T14:26:54.889Z,58.35
2022-12-20T14:29:32.226Z,53.65
2022-12-20T14:32:01.233Z,53.33
2022-12-20T14:34:38.054Z,49.35
2022-12-20T14:37:25.377Z,50.20
2022-12-20T14:40:06.113Z,52.83
2022-12-20T14:42:38.145Z,55.85
2022-12-20T14:45:17.100Z,58.92
2022-12-20T14:48:08.578Z,51.05
2022-12-20T14:50:41.867Z,51.40
2022-12-20T14:53:21.551Z,52.87
2022-12-20T14:55:50.959Z,52.03
2022-12-20T14:58:36.901Z,51.65
2022-12-20T15:01:21.935Z,51.60
2022-12-20T15:04:02.071Z,47.55
2022-12-20T15:06:35.767Z,46.42
2022-12-20T15:09:06.445Z,48.72
2022-12-20T15:11:38.024Z,51.20
2022-12-20T15:14:41.899Z,56.22
2022-12-20T15:17:16.940Z,49.95
2022-12-20T15:19:46.125Z,45.85
2022-12-20T15:22:21.153Z,48.05
2022-12-20T15:24:50.072Z,50.53
2022-12-20T15:27:19.196Z,47.97
2022-12-20T15:29:48.092Z,48.33
2022-12-20T15:32:25.155Z,51.92
2022-12-20T15:34:54.286Z,49.92
2022-12-20T15:37:23.324Z,44.20
2022-12-20T15:39:52.567Z,48.67
2022-12-20T15:42:24.036Z,43.00
2022-12-20T15:44:53.062Z,47.55
2022-12-20T15:47:22.065Z,43.72
2022-12-20T15:49:50.996Z,39.60
2022-12-20T15:52:25.472Z,45.30
2022-12-20T15:54:54.786Z,39.00
2022-12-20T15:57:23.832Z,46.90
2022-12-20T16:00:02.103Z,51.00
2022-12-20T16:02:32.307Z,44.30
2022-12-20T16:05:02.593Z,48.38
2022-12-20T16:07:31.887Z,46.20
2022-12-20T16:10:00.865Z,44.08
2022-12-20T16:12:34.706Z,47.05
2022-12-20T16:15:03.766Z,54.15
2022-12-20T16:17:32.731Z,45.00
2022-12-20T16:20:01.793Z,50.70
2022-12-20T16:22:30.709Z,52.20
2022-12-20T16:25:00.093Z,45.55
2022-12-20T16:27:29.111Z,52.28
2022-12-20T16:29:58.299Z,53.58
2022-12-20T16:32:27.236Z,50.88
2022-12-20T16:34:56.161Z,60.15
2022-12-20T16:37:25.186Z,46.35
2022-12-20T16:39:54.232Z,59.10
2022-12-20T16:42:23.483Z,52.40
2022-12-20T16:44:55.511Z,54.80
2022-12-20T16:47:24.577Z,59.67
2022-12-20T16:49:53.988Z,59.35
2022-12-20T16:52:24.653Z,56.25
2022-12-20T16:54:53.687Z,62.55
2022-12-20T16:57:22.640Z,66.95
2022-12-20T16:59:51.590Z,64.57
2022-12-20T17:02:32.211Z,58.47
2022-12-20T17:05:02.408Z,70.30
2022-12-20T17:07:34.096Z,57.30
2022-12-20T17:15:16.167Z,53.15
2022-12-20T17:17:45.259Z,56.60
2022-12-20T17:20:15.334Z,60.92
2022-12-20T17:25:31.333Z,54.03
2022-12-20T17:28:00.322Z,61.40
2022-12-20T17:30:29.277Z,72.13
2022-12-20T17:32:58.374Z,57.50
2022-12-20T17:35:32.353Z,51.72
2022-12-20T17:38:03.014Z,53.13
2022-12-20T17:40:32.147Z,55.00
2022-12-20T17:43:01.608Z,56.38
2022-12-20T17:45:33.610Z,54.67
2022-12-20T17:48:02.596Z,51.92
2022-12-20T17:50:31.571Z,52.60
2022-12-20T17:53:00.670Z,52.90
2022-12-20T17:55:30.372Z,58.03
2022-12-20T17:57:59.364Z,61.70
2022-12-20T18:00:38.464Z,59.42
2022-12-20T18:03:15.819Z,54.22
2022-12-20T18:06:00.948Z,55.15
2022-12-20T18:08:34.893Z,63.60
2022-12-20T18:11:04.174Z,70.28
2022-12-20T18:13:33.543Z,75.88
2022-12-20T18:16:07.433Z,76.28
2022-12-20T18:18:37.346Z,81.15
2022-12-20T18:21:09.110Z,76.82
2022-12-20T18:23:39.378Z,80.30
2022-12-20T18:26:23.453Z,75.95
2022-12-20T18:28:56.370Z,83.68
2022-12-20T18:31:28.515Z,83.45
2022-12-20T18:33:58.963Z,79.82
2022-12-20T18:36:33.499Z,75.50
2022-12-20T18:39:03.626Z,77.35
2022-12-20T18:41:33.280Z,76.78
2022-12-20T18:44:04.516Z,75.20
2022-12-20T18:46:35.019Z,67.82
2022-12-20T18:49:04.733Z,69.97
2022-12-20T18:51:39.329Z,67.88
2022-12-20T18:54:09.792Z,69.93
2022-12-20T18:56:40.319Z,65.95
2022-12-20T18:59:12.627Z,67.68
2022-12-20T19:01:43.586Z,68.18
2022-12-20T19:04:14.299Z,64.32
2022-12-20T19:06:44.934Z,66.47
2022-12-20T19:09:15.299Z,68.63
2022-12-20T19:11:44.919Z,69.50
2022-12-20T19:14:14.720Z,52.38
2022-12-20T19:16:43.752Z,53.05
2022-12-20T19:19:12.772Z,52.25
2022-12-20T19:21:43.425Z,52.92
2022-12-20T19:24:13.170Z,47.13
2022-12-20T19:26:42.932Z,55.63
2022-12-20T19:29:12.939Z,45.55
2022-12-20T19:31:42.120Z,49.75
2022-12-20T19:34:13.924Z,45.45
2022-12-20T19:36:46.574Z,44.50
2022-12-20T19:39:21.613Z,46.33
2022-12-20T19:42:21.793Z,42.90
2022-12-20T19:44:40.248Z,44.28
2022-12-20T19:47:09.166Z,37.17
2022-12-20T19:49:38.339Z,39.33
2022-12-20T19:52:08.549Z,39.70
2022-12-20T19:54:37.549Z,39.28
2022-12-20T19:57:06.733Z,41.58
2022-12-20T19:59:35.771Z,36.33
2022-12-20T20:02:04.845Z,37.75
2022-12-20T20:04:34.182Z,35.63
2022-12-20T20:07:04.823Z,43.33
2022-12-20T20:09:33.832Z,34.55
2022-12-20T20:12:03.364Z,41.13
2022-12-20T20:14:32.594Z,42.60
2022-12-20T20:17:01.533Z,43.88
2022-12-20T20:19:30.499Z,43.80
2022-12-20T20:21:59.532Z,38.25
2022-12-20T20:24:28.692Z,44.50
2022-12-20T20:26:57.624Z,34.80
2022-12-20T20:29:26.641Z,40.10
2022-12-20T20:31:55.771Z,39.67
2022-12-20T20:34:24.911Z,42.97
2022-12-20T20:36:53.872Z,37.17
2022-12-20T20:39:23.062Z,40.72
2022-12-20T20:41:52.035Z,31.48
2022-12-20T20:44:21.044Z,35.30
2022-12-20T20:46:50.277Z,39.75
2022-12-20T20:49:20.791Z,33.78
2022-12-20T20:51:49.751Z,33.10
2022-12-20T20:54:18.693Z,35.35
2022-12-20T20:56:47.612Z,49.60
2022-12-20T20:59:18.071Z,39.90
2022-12-20T21:01:47.321Z,48.25
2022-12-20T21:04:16.418Z,47.72
2022-12-20T21:06:47.086Z,45.63
2022-12-20T21:09:16.090Z,46.75
2022-12-20T21:11:45.329Z,43.17
2022-12-20T21:14:14.528Z,49.70
2022-12-20T21:16:43.556Z,58.45
2022-12-20T21:19:12.690Z,53.55
2022-12-20T21:21:41.726Z,50.35
2022-12-20T21:24:10.681Z,52.33
2022-12-20T21:26:39.569Z,63.03
2022-12-20T21:29:08.608Z,55.58
2022-12-20T21:31:38.475Z,61.55
2022-12-20T21:34:07.726Z,63.22
2022-12-20T21:36:36.993Z,58.13
2022-12-20T21:39:06.375Z,62.80
2022-12-20T21:41:35.384Z,64.72
2022-12-20T21:44:04.604Z,52.20
2022-12-20T21:46:34.174Z,57.58
2022-12-20T21:49:03.219Z,53.45
2022-12-20T21:51:32.912Z,49.80
2022-12-20T21:54:03.276Z,60.83
2022-12-20T21:56:35.019Z,50.83
2022-12-20T21:59:05.292Z,46.20
2022-12-20T22:01:34.397Z,58.78
2022-12-20T22:04:07.727Z,64.32
2022-12-20T22:06:37.159Z,64.10
2022-12-20T22:09:11.157Z,59.35
2022-12-20T22:11:41.046Z,61.40
2022-12-20T22:14:12.839Z,61.88
2022-12-20T22:16:42.487Z,54.90
2022-12-20T22:19:16.534Z,59.45
2022-12-20T22:21:45.516Z,52.97
2022-12-20T22:24:14.681Z,65.57
2022-12-20T22:26:43.670Z,59.30
2022-12-20T22:29:12.617Z,57.50
2022-12-20T22:31:41.641Z,69.05
2022-12-20T22:34:10.639Z,60.15
2022-12-20T22:36:39.663Z,73.63
2022-12-20T22:39:09.863Z,73.13
2022-12-20T22:41:39.105Z,76.45
2022-12-20T22:44:08.251Z,87.10
2022-12-20T22:46:37.162Z,83.07
2022-12-20T22:49:06.293Z,89.10
2022-12-20T22:51:35.266Z,76.88
2022-12-20T22:54:04.248Z,86.07
2022-12-20T22:56:33.236Z,79.45
2022-12-20T22:59:02.824Z,83.72
2022-12-20T23:01:31.830Z,80.05
2022-12-20T23:04:01.044Z,86.72
2022-12-20T23:06:30.049Z,90.32
2022-12-20T23:08:59.185Z,82.15
2022-12-20T23:11:48.700Z,84.38
2022-12-20T23:14:38.894Z,87.47
2022-12-20T23:17:10.306Z,87.25
2022-12-20T23:19:57.800Z,98.20
2022-12-20T23:22:39.559Z,88.82
2022-12-20T23:25:14.797Z,92.70
2022-12-20T23:27:45.910Z,94.53
2022-12-20T23:30:18.202Z,103.55
2022-12-20T23:32:47.170Z,106.22
2022-12-20T23:35:17.953Z,117.22
2022-12-20T23:37:47.906Z,101.97
2022-12-20T23:40:18.225Z,110.85
2022-12-20T23:42:47.430Z,112.82
2022-12-20T23:45:16.654Z,101.10
2022-12-20T23:47:45.576Z,109.20
2022-12-20T23:50:14.546Z,105.20
2022-12-20T23:52:43.555Z,101.38
2022-12-20T23:55:12.453Z,106.28
2022-12-20T23:57:41.535Z,113.53
